Time;durP1;ratioP1;P1;durP2;ratioP2;P2;SDS_P1;SDS_P2;PMS_P1;PMS_P2;Temp;Humidity;BMP_temperature;BMP_pressure;BME280_temperature;BME280_humidity;BME280_pressure;Samples;Min_cycle;Max_cycle;Signal;HPM_P1;HPM_P2
2023/11/29 00:01:26;;;;;;;11.98;2.85;;;;;;;;;;5083263;28;20036;-49
2023/11/29 00:03:53;;;;;;;9.82;2.90;;;;;;;;;;5085018;28;20052;-50
2023/11/29 00:06:20;;;;;;;16.77;2.88;;;;;;;;;;5089677;28;20479;-49
2023/11/29 00:08:47;;;;;;;12.32;2.83;;;;;;;;;;5080007;28;20479;-47
2023/11/29 00:11:14;;;;;;;17.83;4.05;;;;;;;;;;5084238;28;20035;-46
2023/11/29 00:13:41;;;;;;;16.02;3.08;;;;;;;;;;5098230;28;20489;-47
2023/11/29 00:16:10;;;;;;;9.40;2.70;;;;;;;;;;5091099;28;20521;-47
2023/11/29 00:18:37;;;;;;;12.52;3.28;;;;;;;;;;5082730;28;20037;-47
2023/11/29 00:21:04;;;;;;;11.75;3.15;;;;;;;;;;5083215;28;20039;-49
2023/11/29 00:23:32;;;;;;;12.02;3.35;;;;;;;;;;5083653;28;20035;-48
2023/11/29 00:25:59;;;;;;;9.52;3.00;;;;;;;;;;5077571;28;20024;-49
2023/11/29 00:28:26;;;;;;;13.05;3.20;;;;;;;;;;5082759;28;20032;-50
2023/11/29 00:30:52;;;;;;;6.60;2.45;;;;;;;;;;5076888;28;20506;-47
2023/11/29 00:33:19;;;;;;;16.00;3.35;;;;;;;;;;5078477;28;20098;-48
2023/11/29 00:35:46;;;;;;;10.65;2.85;;;;;;;;;;5084399;28;20527;-50
2023/11/29 00:38:14;;;;;;;11.75;3.42;;;;;;;;;;5077401;28;20036;-49
2023/11/29 00:40:40;;;;;;;17.10;3.95;;;;;;;;;;5082192;28;20044;-48
2023/11/29 00:43:07;;;;;;;13.82;3.85;;;;;;;;;;5091093;28;20516;-50
2023/11/29 00:45:34;;;;;;;14.32;4.32;;;;;;;;;;5090922;28;20107;-49
2023/11/29 00:48:01;;;;;;;9.60;3.58;;;;;;;;;;5090920;28;20036;-49
2023/11/29 00:50:29;;;;;;;8.70;3.50;;;;;;;;;;5082982;28;20443;-49
2023/11/29 00:52:56;;;;;;;11.13;3.75;;;;;;;;;;5084316;28;20028;-49
2023/11/29 00:55:23;;;;;;;10.65;3.47;;;;;;;;;;5095702;28;20027;-49
2023/11/29 00:57:50;;;;;;;10.15;3.45;;;;;;;;;;5075635;28;20032;-49
2023/11/29 01:00:17;;;;;;;9.88;3.50;;;;;;;;;;5078529;28;20059;-48
2023/11/29 01:02:44;;;;;;;12.57;3.85;;;;;;;;;;5084799;28;20083;-50
2023/11/29 01:05:11;;;;;;;11.75;3.92;;;;;;;;;;5094842;28;20182;-50
2023/11/29 01:07:38;;;;;;;10.30;3.55;;;;;;;;;;5094422;28;20638;-48
2023/11/29 01:10:05;;;;;;;12.57;3.10;;;;;;;;;;5094773;28;20382;-49
2023/11/29 01:12:32;;;;;;;8.82;2.88;;;;;;;;;;5094263;28;20032;-49
2023/11/29 01:14:59;;;;;;;7.30;3.03;;;;;;;;;;5079284;28;20024;-49
2023/11/29 01:17:26;;;;;;;15.75;3.90;;;;;;;;;;5080867;28;20406;-48
2023/11/29 01:19:54;;;;;;;12.23;3.20;;;;;;;;;;5086688;28;20089;-50
2023/11/29 01:22:21;;;;;;;11.30;3.63;;;;;;;;;;5080681;28;20037;-48
2023/11/29 01:24:48;;;;;;;10.15;2.90;;;;;;;;;;5075031;28;20060;-48
2023/11/29 01:27:15;;;;;;;7.15;2.35;;;;;;;;;;5089687;28;20027;-49
2023/11/29 01:29:42;;;;;;;13.90;3.10;;;;;;;;;;5088400;28;20063;-50
2023/11/29 01:32:09;;;;;;;8.70;2.60;;;;;;;;;;5084387;28;20128;-48
2023/11/29 01:34:36;;;;;;;8.63;2.60;;;;;;;;;;5104596;27;20051;-48
2023/11/29 01:37:03;;;;;;;6.82;2.40;;;;;;;;;;5111139;27;20028;-50
2023/11/29 01:39:30;;;;;;;14.63;2.92;;;;;;;;;;5094028;28;20020;-49
2023/11/29 01:42:00;;;;;;;8.07;2.63;;;;;;;;;;5093461;28;20504;-40
2023/11/29 01:44:27;;;;;;;11.18;2.70;;;;;;;;;;5090463;28;20032;-41
2023/11/29 01:46:54;;;;;;;6.55;2.20;;;;;;;;;;5093067;28;20037;-40
2023/11/29 01:49:21;;;;;;;10.02;2.30;;;;;;;;;;5092594;28;20282;-40
2023/11/29 01:51:48;;;;;;;6.72;2.03;;;;;;;;;;5092150;28;20028;-41
2023/11/29 01:54:16;;;;;;;12.18;2.63;;;;;;;;;;5091034;28;20028;-41
2023/11/29 01:56:43;;;;;;;7.72;2.13;;;;;;;;;;5092769;28;20034;-41
2023/11/29 01:59:10;;;;;;;6.95;2.05;;;;;;;;;;5093101;28;20028;-40
2023/11/29 02:01:37;;;;;;;5.90;1.95;;;;;;;;;;5090746;28;20131;-40
2023/11/29 02:04:05;;;;;;;6.20;1.98;;;;;;;;;;5092728;28;20055;-41
2023/11/29 02:06:32;;;;;;;5.47;1.60;;;;;;;;;;5092854;28;20063;-41
2023/11/29 02:08:59;;;;;;;5.82;1.65;;;;;;;;;;5093249;28;20110;-44
2023/11/29 02:11:28;;;;;;;4.78;1.65;;;;;;;;;;5093214;28;20028;-41
2023/11/29 02:13:55;;;;;;;3.22;1.67;;;;;;;;;;5089258;28;20035;-42
2023/11/29 02:16:22;;;;;;;5.75;1.60;;;;;;;;;;5092968;28;20055;-40
2023/11/29 02:18:49;;;;;;;5.50;1.42;;;;;;;;;;5093025;28;20024;-40
2023/11/29 02:21:17;;;;;;;5.07;1.48;;;;;;;;;;5093045;28;20024;-42
2023/11/29 02:24:04;;;;;;;7.32;1.88;;;;;;;;;;5092977;28;20040;-40
2023/11/29 02:26:31;;;;;;;3.80;1.55;;;;;;;;;;5092888;28;20028;-42
2023/11/29 02:28:58;;;;;;;4.47;1.60;;;;;;;;;;5092964;28;20030;-40
2023/11/29 02:31:25;;;;;;;6.65;1.83;;;;;;;;;;5093359;28;20032;-40
2023/11/29 02:33:52;;;;;;;7.13;1.80;;;;;;;;;;5093323;28;20040;-40
2023/11/29 02:36:19;;;;;;;4.18;1.52;;;;;;;;;;5093362;28;20093;-40
2023/11/29 02:38:46;;;;;;;3.58;1.48;;;;;;;;;;5093396;28;20046;-41
2023/11/29 02:41:13;;;;;;;6.97;1.40;;;;;;;;;;5093254;28;20501;-40
2023/11/29 02:43:40;;;;;;;5.35;1.80;;;;;;;;;;5093133;28;20394;-40
2023/11/29 02:46:07;;;;;;;4.50;2.03;;;;;;;;;;5093283;28;20028;-40
2023/11/29 02:48:34;;;;;;;6.30;2.05;;;;;;;;;;5093150;28;20089;-40
2023/11/29 02:51:01;;;;;;;6.43;1.60;;;;;;;;;;5093143;28;20058;-41
2023/11/29 02:53:28;;;;;;;6.90;1.83;;;;;;;;;;5093050;28;20020;-40
2023/11/29 02:55:55;;;;;;;6.35;1.73;;;;;;;;;;5092968;28;20016;-40
2023/11/29 02:58:22;;;;;;;4.00;1.52;;;;;;;;;;5093010;28;20386;-42
2023/11/29 03:00:49;;;;;;;6.28;1.58;;;;;;;;;;5092972;28;20780;-40
2023/11/29 03:03:16;;;;;;;5.15;1.80;;;;;;;;;;5092538;28;20466;-40
2023/11/29 03:05:43;;;;;;;5.15;1.45;;;;;;;;;;5092850;28;20105;-40
2023/11/29 03:08:10;;;;;;;6.05;1.50;;;;;;;;;;5092748;28;20020;-40
2023/11/29 03:10:37;;;;;;;5.10;1.67;;;;;;;;;;5091399;28;20432;-40
2023/11/29 03:13:04;;;;;;;6.93;1.73;;;;;;;;;;5092746;28;20024;-40
2023/11/29 03:15:31;;;;;;;5.88;1.70;;;;;;;;;;5092537;28;20064;-40
2023/11/29 03:17:58;;;;;;;7.47;2.28;;;;;;;;;;5092625;28;20035;-40
2023/11/29 03:20:25;;;;;;;5.90;2.10;;;;;;;;;;5092524;28;20111;-40
2023/11/29 03:22:52;;;;;;;6.22;2.00;;;;;;;;;;5092213;28;20541;-41
2023/11/29 03:25:19;;;;;;;7.80;1.80;;;;;;;;;;5092478;28;20048;-40
2023/11/29 03:27:46;;;;;;;3.03;1.50;;;;;;;;;;5092377;28;20076;-40
2023/11/29 03:30:13;;;;;;;5.95;2.05;;;;;;;;;;5092213;28;20482;-43
2023/11/29 03:32:40;;;;;;;3.85;1.77;;;;;;;;;;5092285;28;20038;-40
2023/11/29 03:35:07;;;;;;;5.10;1.55;;;;;;;;;;5092265;28;20023;-40
2023/11/29 03:37:34;;;;;;;4.63;1.50;;;;;;;;;;5092330;28;20115;-44
2023/11/29 03:40:01;;;;;;;8.30;1.85;;;;;;;;;;5092236;28;20024;-40
2023/11/29 03:42:28;;;;;;;7.75;1.83;;;;;;;;;;5092035;28;20548;-40
2023/11/29 03:44:55;;;;;;;4.60;1.63;;;;;;;;;;5092155;28;20078;-40
2023/11/29 03:47:22;;;;;;;7.03;1.90;;;;;;;;;;5092036;28;20106;-40
2023/11/29 03:49:49;;;;;;;3.22;1.50;;;;;;;;;;5092129;28;20089;-40
2023/11/29 03:52:19;;;;;;;5.88;1.70;;;;;;;;;;5091973;28;20119;-40
2023/11/29 03:54:47;;;;;;;4.50;2.00;;;;;;;;;;5092196;28;20375;-40
2023/11/29 03:57:14;;;;;;;4.22;1.27;;;;;;;;;;5092111;28;20028;-40
2023/11/29 03:59:41;;;;;;;6.85;1.92;;;;;;;;;;5091809;28;20032;-40
2023/11/29 04:02:08;;;;;;;5.30;1.75;;;;;;;;;;5091536;28;20054;-40
2023/11/29 04:04:35;;;;;;;5.32;1.70;;;;;;;;;;5091849;28;20024;-44
2023/11/29 04:07:04;;;;;;;6.18;1.95;;;;;;;;;;5091750;28;20123;-40
2023/11/29 04:09:31;;;;;;;7.82;2.20;;;;;;;;;;5091811;28;20239;-43
2023/11/29 04:11:59;;;;;;;4.55;1.70;;;;;;;;;;5091696;28;20032;-40
2023/11/29 04:14:26;;;;;;;4.57;1.63;;;;;;;;;;5091611;28;20032;-40
2023/11/29 04:16:53;;;;;;;3.92;2.00;;;;;;;;;;5091740;28;20036;-41
2023/11/29 04:19:20;;;;;;;6.47;2.13;;;;;;;;;;5091620;28;20028;-40
2023/11/29 04:21:47;;;;;;;4.97;1.77;;;;;;;;;;5091583;28;20024;-40
2023/11/29 04:24:14;;;;;;;5.60;1.80;;;;;;;;;;5091725;28;20024;-40
2023/11/29 04:26:41;;;;;;;5.53;1.88;;;;;;;;;;5091612;28;20031;-40
2023/11/29 04:29:09;;;;;;;6.70;1.73;;;;;;;;;;5091672;28;20482;-40
2023/11/29 04:31:37;;;;;;;5.43;2.00;;;;;;;;;;5091450;28;20457;-40
2023/11/29 04:34:04;;;;;;;8.02;2.13;;;;;;;;;;5091562;28;20024;-40
2023/11/29 04:36:31;;;;;;;6.30;2.55;;;;;;;;;;5093867;28;20059;-40
2023/11/29 04:38:58;;;;;;;8.20;2.30;;;;;;;;;;5095649;28;20032;-41
2023/11/29 04:41:25;;;;;;;4.35;1.75;;;;;;;;;;5095515;28;20028;-40
2023/11/29 04:43:52;;;;;;;5.78;1.65;;;;;;;;;;5095490;28;20112;-40
2023/11/29 04:46:19;;;;;;;5.47;1.88;;;;;;;;;;5095452;28;20037;-42
2023/11/29 04:48:46;;;;;;;6.47;1.88;;;;;;;;;;5095572;28;20064;-41
2023/11/29 04:51:13;;;;;;;7.57;2.05;;;;;;;;;;5095374;28;20085;-40
2023/11/29 04:53:40;;;;;;;7.25;1.70;;;;;;;;;;5095302;28;20385;-43
2023/11/29 04:56:08;;;;;;;3.70;1.40;;;;;;;;;;5094051;28;20555;-40
2023/11/29 04:58:39;;;;;;;5.68;1.63;;;;;;;;;;5095532;28;20036;-40
2023/11/29 05:01:10;;;;;;;5.05;1.77;;;;;;;;;;5095272;28;20105;-40
2023/11/29 05:03:37;;;;;;;3.92;1.52;;;;;;;;;;5094833;28;20095;-40
2023/11/29 05:06:05;;;;;;;4.35;1.40;;;;;;;;;;5095219;28;20024;-40
2023/11/29 05:08:32;;;;;;;3.10;1.60;;;;;;;;;;5095099;28;20392;-40
2023/11/29 05:11:04;;;;;;;5.03;1.58;;;;;;;;;;5095084;28;20031;-39
2023/11/29 05:13:34;;;;;;;3.58;2.05;;;;;;;;;;5094844;28;20028;-40
2023/11/29 05:16:01;;;;;;;6.18;1.95;;;;;;;;;;5094926;28;20024;-40
2023/11/29 05:18:28;;;;;;;3.38;1.42;;;;;;;;;;5094988;28;20024;-41
2023/11/29 05:20:56;;;;;;;4.15;1.65;;;;;;;;;;5094920;28;20035;-40
2023/11/29 05:23:24;;;;;;;3.88;1.73;;;;;;;;;;5094596;28;20036;-40
2023/11/29 05:25:51;;;;;;;5.65;2.03;;;;;;;;;;5094978;28;20418;-40
2023/11/29 05:28:19;;;;;;;6.05;1.77;;;;;;;;;;5094628;28;20651;-40
2023/11/29 05:30:46;;;;;;;4.97;1.77;;;;;;;;;;5094601;28;20047;-40
2023/11/29 05:33:13;;;;;;;3.08;1.83;;;;;;;;;;5094574;28;20389;-40
2023/11/29 05:35:40;;;;;;;4.25;2.00;;;;;;;;;;5094620;28;20074;-40
2023/11/29 05:38:07;;;;;;;5.40;1.90;;;;;;;;;;5094462;28;20031;-43
2023/11/29 05:40:34;;;;;;;5.90;1.92;;;;;;;;;;5094507;28;20047;-40
2023/11/29 05:43:01;;;;;;;4.95;1.70;;;;;;;;;;5094242;28;20545;-40
2023/11/29 05:45:27;;;;;;;4.18;1.77;;;;;;;;;;5094389;28;20024;-40
2023/11/29 05:47:54;;;;;;;4.60;1.70;;;;;;;;;;5093069;28;20024;-41
2023/11/29 05:50:23;;;;;;;3.95;1.90;;;;;;;;;;5094408;28;20483;-40
2023/11/29 05:52:49;;;;;;;5.35;2.03;;;;;;;;;;5094407;28;20036;-43
2023/11/29 05:55:16;;;;;;;5.38;1.75;;;;;;;;;;5094182;28;20037;-40
2023/11/29 05:57:45;;;;;;;6.72;1.63;;;;;;;;;;5094219;28;20047;-40
2023/11/29 06:00:13;;;;;;;4.43;1.48;;;;;;;;;;5093990;28;20063;-41
2023/11/29 06:02:40;;;;;;;8.27;1.92;;;;;;;;;;5092186;28;20056;-40
2023/11/29 06:05:07;;;;;;;5.07;1.63;;;;;;;;;;5094114;28;20092;-43
2023/11/29 06:07:35;;;;;;;4.22;1.45;;;;;;;;;;5093922;28;20028;-40
2023/11/29 06:10:03;;;;;;;4.40;1.58;;;;;;;;;;5094010;28;20073;-40
2023/11/29 06:12:30;;;;;;;3.47;1.42;;;;;;;;;;5093747;28;20024;-41
2023/11/29 06:14:57;;;;;;;4.00;1.52;;;;;;;;;;5093959;28;20028;-40
2023/11/29 06:17:24;;;;;;;4.10;1.33;;;;;;;;;;5093917;28;20118;-40
2023/11/29 06:19:51;;;;;;;2.42;1.38;;;;;;;;;;5093791;28;20077;-40
2023/11/29 06:22:18;;;;;;;2.33;1.20;;;;;;;;;;5093563;28;20028;-44
2023/11/29 06:24:45;;;;;;;2.10;1.30;;;;;;;;;;5093762;28;20032;-40
2023/11/29 06:27:12;;;;;;;5.28;1.33;;;;;;;;;;5093697;28;20028;-41
2023/11/29 06:29:39;;;;;;;3.83;1.83;;;;;;;;;;5093564;28;20024;-40
2023/11/29 06:32:07;;;;;;;3.60;1.35;;;;;;;;;;5093386;28;20042;-40
2023/11/29 06:34:34;;;;;;;3.90;1.17;;;;;;;;;;5093523;28;20047;-41
2023/11/29 06:37:00;;;;;;;3.65;1.42;;;;;;;;;;5093487;28;20024;-40
2023/11/29 06:39:27;;;;;;;6.93;1.58;;;;;;;;;;5093383;28;20024;-40
2023/11/29 06:41:54;;;;;;;4.90;1.58;;;;;;;;;;5108920;28;20036;-42
2023/11/29 06:44:21;;;;;;;4.80;1.48;;;;;;;;;;5093278;28;20032;-40
2023/11/29 06:46:48;;;;;;;3.67;1.33;;;;;;;;;;5093239;28;20016;-40
2023/11/29 06:49:15;;;;;;;4.63;1.20;;;;;;;;;;5093237;28;20077;-40
2023/11/29 06:51:42;;;;;;;6.05;1.30;;;;;;;;;;5093278;28;20054;-40
2023/11/29 06:54:09;;;;;;;3.92;0.80;;;;;;;;;;5093159;28;20393;-40
2023/11/29 06:56:36;;;;;;;3.38;0.93;;;;;;;;;;5093040;28;20028;-40
2023/11/29 06:59:04;;;;;;;3.60;0.90;;;;;;;;;;5092714;28;20032;-40
2023/11/29 07:01:32;;;;;;;2.13;0.73;;;;;;;;;;5092800;28;20032;-40
2023/11/29 07:03:59;;;;;;;3.35;0.90;;;;;;;;;;5092769;28;20048;-41
2023/11/29 07:06:26;;;;;;;1.58;0.60;;;;;;;;;;5092888;28;20091;-40
2023/11/29 07:08:53;;;;;;;4.65;0.95;;;;;;;;;;5092865;28;20017;-40
2023/11/29 07:11:20;;;;;;;8.02;0.80;;;;;;;;;;5092730;28;20030;-42
2023/11/29 07:13:47;;;;;;;3.50;0.93;;;;;;;;;;5092995;28;20038;-40
2023/11/29 07:16:14;;;;;;;3.47;0.80;;;;;;;;;;5092751;28;20016;-40
2023/11/29 07:18:41;;;;;;;4.68;0.90;;;;;;;;;;5092756;28;20028;-40
2023/11/29 07:21:08;;;;;;;3.38;0.70;;;;;;;;;;5092667;28;20094;-40
2023/11/29 07:23:35;;;;;;;2.05;0.65;;;;;;;;;;5092277;28;20028;-40
2023/11/29 07:26:02;;;;;;;1.63;0.75;;;;;;;;;;5092582;28;20028;-40
2023/11/29 07:28:30;;;;;;;2.75;0.80;;;;;;;;;;5092530;28;20023;-41
2023/11/29 07:30:57;;;;;;;3.35;0.65;;;;;;;;;;5092480;28;20049;-40
2023/11/29 07:33:23;;;;;;;2.08;0.70;;;;;;;;;;5092354;28;20062;-40
2023/11/29 07:35:50;;;;;;;3.80;0.90;;;;;;;;;;5092387;28;20043;-41
2023/11/29 07:38:17;;;;;;;1.88;0.57;;;;;;;;;;5092396;28;20592;-40
2023/11/29 07:40:44;;;;;;;6.35;0.80;;;;;;;;;;5092356;28;20023;-40
2023/11/29 07:43:11;;;;;;;4.68;0.75;;;;;;;;;;5092198;28;20032;-40
2023/11/29 07:45:38;;;;;;;3.90;0.60;;;;;;;;;;5092252;28;20027;-40
2023/11/29 07:48:05;;;;;;;7.53;0.85;;;;;;;;;;5092331;28;20111;-40
2023/11/29 07:50:32;;;;;;;4.22;0.77;;;;;;;;;;5092245;28;20028;-40
2023/11/29 07:52:59;;;;;;;2.72;0.88;;;;;;;;;;5092061;28;20024;-40
2023/11/29 07:55:26;;;;;;;3.13;0.70;;;;;;;;;;5092066;28;20020;-40
2023/11/29 07:57:53;;;;;;;3.30;0.60;;;;;;;;;;5091951;28;20492;-40
2023/11/29 08:00:20;;;;;;;1.80;0.60;;;;;;;;;;5091921;28;20027;-40
2023/11/29 08:02:47;;;;;;;3.70;0.70;;;;;;;;;;5091740;28;20056;-40
2023/11/29 08:05:15;;;;;;;2.67;0.65;;;;;;;;;;5091951;28;20020;-40
2023/11/29 08:07:42;;;;;;;1.40;0.80;;;;;;;;;;5092028;28;20070;-40
2023/11/29 08:10:09;;;;;;;2.05;0.75;;;;;;;;;;5091318;28;20020;-40
2023/11/29 08:12:36;;;;;;;1.30;0.57;;;;;;;;;;5091696;28;20028;-40
2023/11/29 08:15:03;;;;;;;3.03;0.70;;;;;;;;;;5091822;28;20545;-40
2023/11/29 08:17:32;;;;;;;1.95;0.60;;;;;;;;;;5091863;28;20158;-40
2023/11/29 08:19:59;;;;;;;2.28;0.60;;;;;;;;;;5091651;28;20367;-41
2023/11/29 08:22:26;;;;;;;1.33;0.47;;;;;;;;;;5091643;28;20496;-40
2023/11/29 08:24:53;;;;;;;1.77;0.50;;;;;;;;;;5091469;28;20028;-40
2023/11/29 08:27:21;;;;;;;1.38;0.60;;;;;;;;;;5091671;28;20043;-42
2023/11/29 08:29:48;;;;;;;4.35;0.60;;;;;;;;;;5091693;28;20107;-40
2023/11/29 08:32:15;;;;;;;1.25;0.50;;;;;;;;;;5091365;28;20032;-40
2023/11/29 08:34:42;;;;;;;3.70;0.55;;;;;;;;;;5091311;28;20020;-41
2023/11/29 08:37:09;;;;;;;6.32;0.50;;;;;;;;;;5091622;28;20030;-40
2023/11/29 08:39:36;;;;;;;3.17;0.68;;;;;;;;;;5091587;28;20027;-40
2023/11/29 08:42:04;;;;;;;1.23;0.40;;;;;;;;;;5091352;28;20081;-41
2023/11/29 08:44:35;;;;;;;1.33;0.52;;;;;;;;;;5091485;28;20449;-39
2023/11/29 08:47:03;;;;;;;1.98;0.50;;;;;;;;;;5091533;28;20129;-40
2023/11/29 08:49:30;;;;;;;2.35;0.40;;;;;;;;;;5091484;28;20024;-40
2023/11/29 08:51:57;;;;;;;1.58;0.50;;;;;;;;;;5091385;28;20036;-40
2023/11/29 08:54:24;;;;;;;1.90;0.63;;;;;;;;;;5091431;28;20138;-40
2023/11/29 08:56:51;;;;;;;21.42;0.90;;;;;;;;;;5091295;28;20099;-40
2023/11/29 08:59:18;;;;;;;6.30;0.70;;;;;;;;;;5091381;28;20024;-40
2023/11/29 09:01:45;;;;;;;2.13;0.45;;;;;;;;;;5091155;28;20032;-40
2023/11/29 09:04:12;;;;;;;5.38;1.35;;;;;;;;;;5090973;28;20063;-40
2023/11/29 09:06:39;;;;;;;1.08;0.50;;;;;;;;;;5091327;28;20105;-41
2023/11/29 09:09:08;;;;;;;4.60;0.50;;;;;;;;;;5091355;28;20577;-40
2023/11/29 09:11:35;;;;;;;3.55;0.60;;;;;;;;;;5091153;28;20035;-40
2023/11/29 09:14:02;;;;;;;3.17;0.50;;;;;;;;;;5091267;28;20095;-40
2023/11/29 09:16:29;;;;;;;2.00;0.50;;;;;;;;;;5091103;28;20028;-40
2023/11/29 09:18:58;;;;;;;2.90;0.50;;;;;;;;;;5089576;28;20028;-40
2023/11/29 09:21:26;;;;;;;6.00;0.50;;;;;;;;;;5091236;28;20035;-40
2023/11/29 09:23:53;;;;;;;2.20;0.45;;;;;;;;;;5094615;28;20028;-43
2023/11/29 09:26:20;;;;;;;3.47;0.50;;;;;;;;;;5094781;28;20085;-40
2023/11/29 09:28:47;;;;;;;2.50;0.43;;;;;;;;;;5094652;28;20024;-40
2023/11/29 09:31:14;;;;;;;2.17;0.70;;;;;;;;;;5094619;28;20771;-45
2023/11/29 09:33:42;;;;;;;2.05;0.55;;;;;;;;;;5093475;28;20042;-40
2023/11/29 09:36:10;;;;;;;5.45;0.60;;;;;;;;;;5094695;28;20038;-40
2023/11/29 09:38:39;;;;;;;5.45;0.50;;;;;;;;;;5094645;28;20099;-40
2023/11/29 09:41:09;;;;;;;3.45;0.77;;;;;;;;;;5092881;28;20031;-40
2023/11/29 09:43:35;;;;;;;6.38;1.10;;;;;;;;;;5093932;28;20036;-40
2023/11/29 09:46:02;;;;;;;6.57;0.73;;;;;;;;;;5094215;28;20478;-40
2023/11/29 09:48:29;;;;;;;13.50;1.20;;;;;;;;;;5093423;28;20052;-41
2023/11/29 09:50:57;;;;;;;4.32;0.70;;;;;;;;;;5093631;28;20387;-40
2023/11/29 09:53:26;;;;;;;4.32;0.90;;;;;;;;;;5093508;28;20020;-40
2023/11/29 09:55:54;;;;;;;4.70;0.70;;;;;;;;;;5091057;28;20429;-40
2023/11/29 09:58:21;;;;;;;6.22;1.10;;;;;;;;;;5092570;28;20024;-44
2023/11/29 10:00:48;;;;;;;8.85;1.17;;;;;;;;;;5087313;28;20024;-41
2023/11/29 10:03:15;;;;;;;4.38;1.08;;;;;;;;;;5093053;28;20117;-41
2023/11/29 10:05:46;;;;;;;6.82;1.00;;;;;;;;;;5093411;28;20031;-41
2023/11/29 10:08:22;;;;;;;6.43;1.15;;;;;;;;;;5090985;28;20549;-41
2023/11/29 10:10:52;;;;;;;3.80;0.85;;;;;;;;;;5092893;28;20089;-50
2023/11/29 10:13:20;;;;;;;4.45;0.80;;;;;;;;;;5089323;28;20046;-38
2023/11/29 10:15:48;;;;;;;4.68;1.00;;;;;;;;;;5092958;28;20024;-39
2023/11/29 10:18:19;;;;;;;6.00;0.85;;;;;;;;;;5092391;28;20076;-41
2023/11/29 10:20:47;;;;;;;2.42;0.90;;;;;;;;;;5087510;28;20367;-44
2023/11/29 10:23:14;;;;;;;6.38;0.70;;;;;;;;;;5091003;28;20063;-49
2023/11/29 10:25:41;;;;;;;2.72;0.93;;;;;;;;;;5088799;28;20036;-43
2023/11/29 10:28:08;;;;;;;6.22;1.20;;;;;;;;;;5092308;28;20103;-43
2023/11/29 10:30:35;;;;;;;9.80;1.08;;;;;;;;;;5092307;28;20028;-42
2023/11/29 10:33:04;;;;;;;7.15;1.30;;;;;;;;;;5091982;28;20035;-39
2023/11/29 10:35:35;;;;;;;11.25;1.48;;;;;;;;;;5086361;28;20537;-42
2023/11/29 10:38:08;;;;;;;12.60;1.40;;;;;;;;;;5089939;28;20059;-42
2023/11/29 10:40:35;;;;;;;13.68;1.55;;;;;;;;;;5090422;28;20042;-45
2023/11/29 10:43:05;;;;;;;6.82;1.02;;;;;;;;;;5092232;28;20036;-41
2023/11/29 10:45:32;;;;;;;5.07;0.60;;;;;;;;;;5087977;28;20036;-43
2023/11/29 10:48:01;;;;;;;7.45;0.88;;;;;;;;;;5089105;28;20509;-46
2023/11/29 10:50:29;;;;;;;5.32;1.00;;;;;;;;;;5088316;28;20027;-41
2023/11/29 10:52:56;;;;;;;10.20;1.10;;;;;;;;;;5092109;28;20780;-42
2023/11/29 10:55:24;;;;;;;4.15;0.82;;;;;;;;;;5089522;28;20028;-40
2023/11/29 10:57:58;;;;;;;7.57;0.90;;;;;;;;;;5088763;28;20513;-37
2023/11/29 11:00:26;;;;;;;4.80;0.60;;;;;;;;;;5091480;28;20028;-39
2023/11/29 11:02:53;;;;;;;2.97;0.73;;;;;;;;;;5089545;28;20055;-37
2023/11/29 11:05:23;;;;;;;5.90;0.90;;;;;;;;;;5092105;28;20024;-37
2023/11/29 11:07:50;;;;;;;3.80;0.73;;;;;;;;;;5092129;28;20024;-36
2023/11/29 11:10:27;;;;;;;5.20;0.75;;;;;;;;;;5089608;28;20036;-36
2023/11/29 11:12:56;;;;;;;4.13;0.70;;;;;;;;;;5089921;28;20020;-39
2023/11/29 11:15:28;;;;;;;3.40;0.70;;;;;;;;;;5091983;28;20141;-39
2023/11/29 11:18:04;;;;;;;3.97;1.08;;;;;;;;;;5092287;28;20043;-37
2023/11/29 11:20:40;;;;;;;5.50;1.30;;;;;;;;;;5092478;28;20394;-38
2023/11/29 11:23:07;;;;;;;9.45;1.40;;;;;;;;;;5090806;28;20248;-38
2023/11/29 11:25:36;;;;;;;5.85;0.95;;;;;;;;;;5092264;28;20070;-39
2023/11/29 11:28:03;;;;;;;4.35;1.20;;;;;;;;;;5092425;28;20024;-39
2023/11/29 11:30:30;;;;;;;4.75;0.73;;;;;;;;;;5092298;28;20032;-39
2023/11/29 11:33:01;;;;;;;3.17;1.00;;;;;;;;;;5090216;28;20335;-39
2023/11/29 11:35:32;;;;;;;6.68;0.90;;;;;;;;;;5090825;28;20509;-39
2023/11/29 11:38:00;;;;;;;6.07;0.70;;;;;;;;;;5091857;28;20036;-39
2023/11/29 11:40:29;;;;;;;5.90;0.50;;;;;;;;;;5091809;28;20509;-37
2023/11/29 11:42:59;;;;;;;4.13;0.82;;;;;;;;;;5089924;28;20050;-39
2023/11/29 11:45:32;;;;;;;4.40;1.17;;;;;;;;;;5090957;28;20035;-38
2023/11/29 11:48:03;;;;;;;2.13;0.50;;;;;;;;;;5091933;28;20058;-38
2023/11/29 11:50:30;;;;;;;9.55;1.30;;;;;;;;;;5091857;28;20028;-38
2023/11/29 11:53:03;;;;;;;4.53;0.68;;;;;;;;;;5091074;28;20390;-40
2023/11/29 11:55:30;;;;;;;2.97;0.52;;;;;;;;;;5090204;28;20097;-38
2023/11/29 11:58:02;;;;;;;11.70;1.23;;;;;;;;;;5091973;28;20505;-38
2023/11/29 12:00:30;;;;;;;3.55;0.50;;;;;;;;;;5091931;28;20031;-38
2023/11/29 12:02:59;;;;;;;4.60;0.55;;;;;;;;;;5091319;28;20050;-40
2023/11/29 12:05:26;;;;;;;1.63;0.40;;;;;;;;;;5090118;28;20024;-38
2023/11/29 12:07:53;;;;;;;2.53;0.57;;;;;;;;;;5090324;28;20039;-38
2023/11/29 12:10:22;;;;;;;4.15;0.70;;;;;;;;;;5091815;28;20032;-38
2023/11/29 12:12:50;;;;;;;1.52;0.30;;;;;;;;;;5090000;28;20038;-38
2023/11/29 12:15:17;;;;;;;3.60;0.50;;;;;;;;;;5090020;28;20036;-38
2023/11/29 12:17:46;;;;;;;1.60;0.45;;;;;;;;;;5091819;28;20032;-38
2023/11/29 12:20:13;;;;;;;2.72;0.20;;;;;;;;;;5091680;28;20114;-38
2023/11/29 12:22:44;;;;;;;2.63;0.55;;;;;;;;;;5091439;28;20031;-38
2023/11/29 12:25:14;;;;;;;6.20;0.40;;;;;;;;;;5091749;28;20081;-38
2023/11/29 12:27:45;;;;;;;5.18;0.60;;;;;;;;;;5091715;28;20028;-38
2023/11/29 12:30:13;;;;;;;1.52;0.50;;;;;;;;;;5090289;28;20513;-39
2023/11/29 12:32:41;;;;;;;6.15;0.40;;;;;;;;;;5091656;28;20034;-38
2023/11/29 12:35:15;;;;;;;2.47;0.40;;;;;;;;;;5091578;28;20107;-38
2023/11/29 12:37:46;;;;;;;3.40;0.45;;;;;;;;;;5091520;28;20115;-38
2023/11/29 12:40:16;;;;;;;3.00;0.40;;;;;;;;;;5091560;28;20436;-38
2023/11/29 12:42:47;;;;;;;1.38;0.50;;;;;;;;;;5091425;28;20068;-38
2023/11/29 12:45:14;;;;;;;2.95;0.50;;;;;;;;;;5091593;28;20024;-38
2023/11/29 12:47:41;;;;;;;3.95;0.30;;;;;;;;;;5091572;28;20060;-38
2023/11/29 12:50:10;;;;;;;2.97;0.38;;;;;;;;;;5091518;28;20028;-38
2023/11/29 12:52:37;;;;;;;3.78;0.40;;;;;;;;;;5091448;28;20390;-38
2023/11/29 12:55:04;;;;;;;1.70;0.40;;;;;;;;;;5091486;28;20056;-38
2023/11/29 12:57:31;;;;;;;3.17;0.50;;;;;;;;;;5093594;28;20024;-38
2023/11/29 12:59:58;;;;;;;2.45;0.43;;;;;;;;;;5095364;28;20436;-38
2023/11/29 13:02:25;;;;;;;4.28;0.40;;;;;;;;;;5094980;28;20505;-38
2023/11/29 13:04:52;;;;;;;0.90;0.22;;;;;;;;;;5095297;28;20036;-37
2023/11/29 13:07:19;;;;;;;3.63;0.60;;;;;;;;;;5095287;28;20031;-38
2023/11/29 13:09:46;;;;;;;1.10;0.38;;;;;;;;;;5095188;28;20070;-39
2023/11/29 13:12:13;;;;;;;3.25;0.50;;;;;;;;;;5095037;28;20040;-38
2023/11/29 13:14:41;;;;;;;3.63;0.30;;;;;;;;;;5095153;28;20036;-38
2023/11/29 13:17:12;;;;;;;5.47;0.30;;;;;;;;;;5094998;28;20051;-40
2023/11/29 13:19:40;;;;;;;2.15;0.40;;;;;;;;;;5095332;28;20417;-38
2023/11/29 13:22:07;;;;;;;4.63;0.30;;;;;;;;;;5094664;28;20504;-38
2023/11/29 13:24:34;;;;;;;2.25;0.35;;;;;;;;;;5094925;28;20024;-38
2023/11/29 13:27:01;;;;;;;1.60;0.43;;;;;;;;;;5094895;28;20505;-38
2023/11/29 13:29:28;;;;;;;2.38;0.32;;;;;;;;;;5094861;28;20024;-38
2023/11/29 13:31:54;;;;;;;0.65;0.40;;;;;;;;;;5094721;28;20486;-38
2023/11/29 13:34:21;;;;;;;1.95;0.30;;;;;;;;;;5094705;28;20031;-38
2023/11/29 13:36:48;;;;;;;2.75;0.52;;;;;;;;;;5094721;28;20055;-38
2023/11/29 13:39:15;;;;;;;1.80;0.40;;;;;;;;;;5094691;28;20103;-38
2023/11/29 13:41:42;;;;;;;2.58;0.40;;;;;;;;;;5094362;28;20024;-38
2023/11/29 13:44:09;;;;;;;1.17;0.45;;;;;;;;;;5094453;28;20119;-38
2023/11/29 13:46:36;;;;;;;1.70;0.40;;;;;;;;;;5094427;28;20099;-39
2023/11/29 13:49:03;;;;;;;0.98;0.40;;;;;;;;;;5094478;28;20032;-38
2023/11/29 13:51:30;;;;;;;1.65;0.30;;;;;;;;;;5094358;28;20028;-38
2023/11/29 13:53:58;;;;;;;1.63;0.47;;;;;;;;;;5094428;28;20063;-38
2023/11/29 13:56:25;;;;;;;0.60;0.30;;;;;;;;;;5094262;28;20027;-38
2023/11/29 13:58:52;;;;;;;0.75;0.30;;;;;;;;;;5094192;28;20077;-38
2023/11/29 14:01:19;;;;;;;0.95;0.30;;;;;;;;;;5094208;28;20039;-38
2023/11/29 14:03:46;;;;;;;2.53;0.30;;;;;;;;;;5093906;28;20055;-39
2023/11/29 14:06:13;;;;;;;1.58;0.40;;;;;;;;;;5094199;28;20031;-38
2023/11/29 14:08:42;;;;;;;1.40;0.40;;;;;;;;;;5093005;28;20028;-38
2023/11/29 14:11:09;;;;;;;2.13;0.40;;;;;;;;;;5094055;28;20020;-38
2023/11/29 14:13:36;;;;;;;0.45;0.32;;;;;;;;;;5093922;28;20028;-38
2023/11/29 14:16:03;;;;;;;2.97;0.40;;;;;;;;;;5094023;28;20031;-38
2023/11/29 14:18:31;;;;;;;2.30;0.40;;;;;;;;;;5093973;28;20044;-38
2023/11/29 14:20:58;;;;;;;0.95;0.40;;;;;;;;;;5093847;28;20115;-38
2023/11/29 14:23:25;;;;;;;0.68;0.32;;;;;;;;;;5093744;28;20028;-38
2023/11/29 14:25:52;;;;;;;1.83;0.38;;;;;;;;;;5093698;28;20050;-37
2023/11/29 14:28:19;;;;;;;1.58;0.30;;;;;;;;;;5093753;28;20020;-38
2023/11/29 14:30:46;;;;;;;1.13;0.38;;;;;;;;;;5093619;28;20022;-38
2023/11/29 14:33:13;;;;;;;2.28;0.30;;;;;;;;;;5093562;28;20039;-38
2023/11/29 14:35:40;;;;;;;0.77;0.30;;;;;;;;;;5093796;28;20028;-38
2023/11/29 14:38:07;;;;;;;3.13;0.40;;;;;;;;;;5093569;28;20036;-38
2023/11/29 14:40:34;;;;;;;0.65;0.30;;;;;;;;;;5093340;28;20024;-38
2023/11/29 14:43:01;;;;;;;2.42;0.40;;;;;;;;;;5093370;28;20032;-38